Time;durP1;ratioP1;P1;durP2;ratioP2;P2;SDS_P1;SDS_P2;PMS_P1;PMS_P2;Temp;Humidity;BMP_temperature;BMP_pressure;BME280_temperature;BME280_humidity;BME280_pressure;Samples;Min_cycle;Max_cycle;Signal;HPM_P1;HPM_P2
2022/10/16 00:01:23;;;;;;;1.83;0.60;;;12.60;99.90;;;;;;5099859;28;20035;-38
2022/10/16 00:03:50;;;;;;;5.72;0.95;;;12.60;99.90;;;;;;5105603;28;20067;-39
2022/10/16 00:06:17;;;;;;;3.92;0.82;;;12.60;99.90;;;;;;5103735;28;20097;-38
2022/10/16 00:08:43;;;;;;;5.20;0.65;;;12.70;99.90;;;;;;5109945;28;20067;-42
2022/10/16 00:11:12;;;;;;;3.33;0.90;;;12.60;99.90;;;;;;5106250;28;20039;-38
2022/10/16 00:13:40;;;;;;;5.95;1.20;;;12.60;99.90;;;;;;5107331;28;20027;-39
2022/10/16 00:16:07;;;;;;;2.95;0.73;;;12.60;99.90;;;;;;5107742;28;20402;-38
2022/10/16 00:18:33;;;;;;;1.63;0.70;;;12.60;99.90;;;;;;5098983;28;20454;-37
2022/10/16 00:21:10;;;;;;;1.85;1.05;;;12.60;99.90;;;;;;5101545;28;20891;-39
2022/10/16 00:23:37;;;;;;;3.53;0.73;;;12.60;99.90;;;;;;5077770;28;20051;-39
2022/10/16 00:26:05;;;;;;;5.40;0.80;;;12.70;99.90;;;;;;5107171;28;20134;-38
2022/10/16 00:28:32;;;;;;;3.20;0.82;;;12.70;99.90;;;;;;5109485;28;20044;-38
2022/10/16 00:30:57;;;;;;;2.85;0.70;;;12.70;99.90;;;;;;5099965;28;20067;-38
2022/10/16 00:33:23;;;;;;;1.73;0.70;;;12.70;99.90;;;;;;5104241;28;20067;-38
2022/10/16 00:35:50;;;;;;;3.95;1.02;;;12.70;99.90;;;;;;5099777;28;20054;-38
2022/10/16 00:38:16;;;;;;;2.13;0.65;;;12.70;99.90;;;;;;5104329;28;20043;-38
2022/10/16 00:40:42;;;;;;;5.80;0.90;;;12.70;99.90;;;;;;5102974;28;20524;-38
2022/10/16 00:43:32;;;;;;;4.63;1.15;;;12.70;99.90;;;;;;5098366;28;20046;-38
2022/10/16 00:45:59;;;;;;;5.05;1.00;;;12.70;99.90;;;;;;5101484;28;20062;-38
2022/10/16 00:48:25;;;;;;;5.07;0.90;;;12.60;99.90;;;;;;5105461;28;20534;-39
2022/10/16 00:50:51;;;;;;;2.40;0.70;;;12.70;99.90;;;;;;5107498;28;20043;-38
2022/10/16 00:53:17;;;;;;;3.92;0.98;;;12.70;99.90;;;;;;5103265;28;20058;-38
2022/10/16 00:55:43;;;;;;;4.85;1.00;;;12.60;99.90;;;;;;5107282;28;20493;-38
2022/10/16 00:58:09;;;;;;;3.58;0.90;;;12.60;99.90;;;;;;5098356;28;20047;-38
2022/10/16 01:00:35;;;;;;;6.03;0.90;;;12.60;99.90;;;;;;5095438;28;20091;-43
2022/10/16 01:03:02;;;;;;;1.40;0.63;;;12.60;99.90;;;;;;5104938;28;20032;-38
2022/10/16 01:05:42;;;;;;;2.55;0.73;;;12.60;99.90;;;;;;5100178;28;20050;-38
2022/10/16 01:08:42;;;;;;;2.97;0.90;;;12.60;99.90;;;;;;5101452;28;20508;-38
2022/10/16 01:11:22;;;;;;;5.72;1.08;;;12.60;99.90;;;;;;5098119;28;20452;-38
2022/10/16 01:13:53;;;;;;;3.30;1.10;;;12.60;99.90;;;;;;5100178;28;20519;-38
2022/10/16 01:16:45;;;;;;;2.47;0.65;;;12.60;99.90;;;;;;5103213;28;20035;-37
2022/10/16 01:19:20;;;;;;;2.55;0.93;;;12.60;99.90;;;;;;5097202;28;20408;-38
2022/10/16 01:21:48;;;;;;;5.65;0.88;;;12.60;99.90;;;;;;5101096;28;20530;-38
2022/10/16 01:24:35;;;;;;;2.53;0.90;;;12.60;99.90;;;;;;5099163;28;20035;-38
2022/10/16 01:27:25;;;;;;;4.10;0.80;;;12.60;99.90;;;;;;5105038;28;20051;-37
2022/10/16 01:30:04;;;;;;;4.82;1.08;;;12.50;99.90;;;;;;5099355;28;20196;-37
2022/10/16 01:32:30;;;;;;;2.95;0.60;;;12.60;99.90;;;;;;5100281;28;20040;-38
2022/10/16 01:35:21;;;;;;;1.85;0.65;;;12.60;99.90;;;;;;5097380;28;20043;-37
2022/10/16 01:38:05;;;;;;;2.35;0.60;;;12.60;99.90;;;;;;5102726;28;20092;-38
2022/10/16 01:40:34;;;;;;;3.92;0.95;;;12.60;99.90;;;;;;5104595;28;20112;-37
2022/10/16 01:43:27;;;;;;;3.25;0.73;;;12.60;99.90;;;;;;5099230;28;20044;-37
2022/10/16 01:45:53;;;;;;;4.13;1.00;;;12.60;99.90;;;;;;5100432;28;20058;-37
2022/10/16 01:48:20;;;;;;;3.08;0.70;;;12.60;99.90;;;;;;5102736;28;20035;-38
2022/10/16 01:51:03;;;;;;;1.75;0.75;;;12.60;99.90;;;;;;5103554;28;20032;-37
2022/10/16 01:53:29;;;;;;;;;;;12.60;99.90;;;;;;5103464;28;20119;-37
2022/10/16 01:55:57;;;;;;;3.92;0.80;;;12.60;99.90;;;;;;5098819;28;20003;-38
2022/10/16 01:58:25;;;;;;;3.92;0.82;;;12.60;99.90;;;;;;5102677;28;20170;-37
2022/10/16 02:00:54;;;;;;;2.97;1.00;;;12.60;99.90;;;;;;5103138;28;20172;-37
2022/10/16 02:03:21;;;;;;;3.83;0.90;;;12.60;99.90;;;;;;5103682;28;20075;-38
2022/10/16 02:05:55;;;;;;;2.30;1.23;;;12.60;99.90;;;;;;5101852;28;20156;-38
2022/10/16 02:08:23;;;;;;;4.03;1.30;;;12.50;99.90;;;;;;5100353;28;20047;-38
2022/10/16 02:10:50;;;;;;;3.13;0.90;;;12.50;99.90;;;;;;5100759;28;20032;-49
2022/10/16 02:13:53;;;;;;;2.08;0.85;;;12.60;99.90;;;;;;5104178;28;20490;-36
2022/10/16 02:16:18;;;;;;;3.47;0.80;;;12.50;99.90;;;;;;5107100;28;20110;-38
2022/10/16 02:18:44;;;;;;;1.88;0.88;;;12.50;99.90;;;;;;5101177;28;20119;-37
2022/10/16 02:21:25;;;;;;;3.28;0.90;;;12.50;99.90;;;;;;5104201;28;20023;-37
2022/10/16 02:24:09;;;;;;;3.97;1.02;;;12.50;99.90;;;;;;5096519;28;20044;-46
2022/10/16 02:26:52;;;;;;;4.38;0.85;;;12.50;99.90;;;;;;5098435;28;20508;-38
2022/10/16 02:29:23;;;;;;;5.40;1.20;;;12.50;99.90;;;;;;5103993;28;20052;-37
2022/10/16 02:31:55;;;;;;;2.78;0.60;;;12.50;99.90;;;;;;5102706;28;20040;-38
2022/10/16 02:34:23;;;;;;;3.85;0.90;;;12.50;99.90;;;;;;5099804;28;20068;-38
2022/10/16 02:36:51;;;;;;;1.95;0.60;;;12.50;99.90;;;;;;5103385;28;20078;-38
2022/10/16 02:39:18;;;;;;;2.00;0.70;;;12.40;99.90;;;;;;5102055;28;20023;-37
2022/10/16 02:41:43;;;;;;;2.60;0.70;;;12.50;99.90;;;;;;5098266;28;20126;-37
2022/10/16 02:44:09;;;;;;;3.45;0.82;;;12.50;99.90;;;;;;5100695;28;20142;-37
2022/10/16 02:46:35;;;;;;;2.13;0.80;;;12.50;99.90;;;;;;5093737;28;20048;-37
2022/10/16 02:49:00;;;;;;;1.45;0.63;;;12.60;99.90;;;;;;5104850;28;20369;-37
2022/10/16 02:51:26;;;;;;;2.92;0.52;;;12.60;99.90;;;;;;5102924;28;20169;-37
2022/10/16 02:53:52;;;;;;;2.88;0.80;;;12.70;99.90;;;;;;5103637;28;20398;-38
2022/10/16 02:56:18;;;;;;;6.15;0.60;;;12.70;99.90;;;;;;5102309;28;20040;-37
2022/10/16 02:58:44;;;;;;;4.00;0.60;;;12.70;99.90;;;;;;5106997;28;20100;-44
2022/10/16 03:01:12;;;;;;;4.07;0.80;;;12.80;99.90;;;;;;5102660;28;20036;-38
2022/10/16 03:03:38;;;;;;;7.00;0.65;;;12.80;99.90;;;;;;5101665;28;20138;-37
2022/10/16 03:06:04;;;;;;;2.95;0.70;;;12.80;99.90;;;;;;5096159;28;20524;-38
2022/10/16 03:08:29;;;;;;;2.25;0.50;;;12.80;99.90;;;;;;5106756;28;20035;-37
2022/10/16 03:10:55;;;;;;;2.33;0.70;;;12.90;99.90;;;;;;5102116;28;20507;-37
2022/10/16 03:13:21;;;;;;;2.40;0.60;;;12.90;99.90;;;;;;5106309;28;20042;-45
2022/10/16 03:15:46;;;;;;;6.25;0.80;;;12.90;99.90;;;;;;5102565;28;20031;-38
2022/10/16 03:18:12;;;;;;;2.05;0.70;;;12.90;99.90;;;;;;5102974;28;20036;-37
2022/10/16 03:20:38;;;;;;;3.88;0.60;;;12.90;99.90;;;;;;5089289;28;20073;-37
2022/10/16 03:23:04;;;;;;;1.77;0.95;;;12.90;99.90;;;;;;5102136;28;20035;-38
2022/10/16 03:25:29;;;;;;;2.67;0.63;;;12.90;99.90;;;;;;5099277;28;20040;-38
2022/10/16 03:27:55;;;;;;;3.60;0.82;;;12.90;99.90;;;;;;5105930;28;20040;-38
2022/10/16 03:30:21;;;;;;;1.77;0.75;;;12.90;99.90;;;;;;5102864;28;20035;-38
2022/10/16 03:32:47;;;;;;;2.15;0.77;;;12.90;99.90;;;;;;5103387;28;20028;-38
2022/10/16 03:35:12;;;;;;;3.15;0.70;;;12.80;99.90;;;;;;5110227;28;20043;-38
2022/10/16 03:37:38;;;;;;;1.38;0.60;;;12.80;99.90;;;;;;5104236;28;20091;-38
2022/10/16 03:40:05;;;;;;;3.00;1.35;;;12.80;99.90;;;;;;5099092;28;20043;-38
2022/10/16 03:42:30;;;;;;;1.90;0.65;;;12.80;99.90;;;;;;5101019;28;20051;-38
2022/10/16 03:44:56;;;;;;;3.60;0.70;;;12.80;99.90;;;;;;5103986;28;20039;-37
2022/10/16 03:47:23;;;;;;;2.05;0.73;;;12.70;99.90;;;;;;5111075;28;20389;-38
2022/10/16 03:49:49;;;;;;;3.47;0.98;;;12.70;99.90;;;;;;5101435;28;20600;-39
2022/10/16 03:52:15;;;;;;;4.53;0.98;;;12.70;99.90;;;;;;5107775;28;20092;-38
2022/10/16 03:54:41;;;;;;;4.57;1.05;;;12.60;99.90;;;;;;5102653;28;20040;-38
2022/10/16 03:57:07;;;;;;;1.40;0.80;;;12.60;99.90;;;;;;5098527;28;20047;-39
2022/10/16 03:59:32;;;;;;;2.28;1.05;;;12.50;99.90;;;;;;5100076;28;20054;-38
2022/10/16 04:01:58;;;;;;;4.03;1.00;;;12.50;99.90;;;;;;5101519;28;20106;-37
2022/10/16 04:04:24;;;;;;;2.50;1.48;;;12.50;99.90;;;;;;5103323;28;20054;-38
2022/10/16 04:06:51;;;;;;;3.10;1.00;;;12.40;99.90;;;;;;5105998;28;20059;-39
2022/10/16 04:09:16;;;;;;;5.95;1.40;;;12.40;99.90;;;;;;5100675;28;20132;-38
2022/10/16 04:11:42;;;;;;;2.33;0.93;;;12.30;99.90;;;;;;5102483;28;20492;-38
2022/10/16 04:14:08;;;;;;;4.90;1.05;;;12.30;99.90;;;;;;5099502;28;20405;-39
2022/10/16 04:16:34;;;;;;;2.33;0.90;;;12.30;99.90;;;;;;5105711;28;20039;-38
2022/10/16 04:19:00;;;;;;;1.88;0.80;;;12.30;99.90;;;;;;5106190;28;20069;-38
2022/10/16 04:21:25;;;;;;;3.08;1.20;;;12.30;99.90;;;;;;5103058;28;20501;-38
2022/10/16 04:23:51;;;;;;;3.55;1.05;;;12.30;99.90;;;;;;5103530;28;20039;-39
2022/10/16 04:26:17;;;;;;;4.63;1.40;;;12.30;99.90;;;;;;5102050;28;20054;-39
2022/10/16 04:28:43;;;;;;;3.42;0.98;;;12.30;99.90;;;;;;5101833;28;20118;-39
2022/10/16 04:31:08;;;;;;;2.78;0.80;;;12.30;99.90;;;;;;5103226;28;20031;-38
2022/10/16 04:33:34;;;;;;;5.45;1.40;;;12.30;99.90;;;;;;5102977;28;20168;-39
2022/10/16 04:36:01;;;;;;;4.38;1.35;;;12.40;99.90;;;;;;5108411;28;20034;-38
2022/10/16 04:38:26;;;;;;;2.50;1.10;;;12.40;99.90;;;;;;5100789;28;20132;-39
2022/10/16 04:40:52;;;;;;;4.10;1.20;;;12.40;99.90;;;;;;5100187;28;20043;-39
2022/10/16 04:43:19;;;;;;;3.65;1.30;;;12.50;99.90;;;;;;5103814;28;20404;-38
2022/10/16 04:45:44;;;;;;;2.63;1.50;;;12.50;99.90;;;;;;5106345;28;20572;-38
2022/10/16 04:48:10;;;;;;;4.70;1.40;;;12.50;99.90;;;;;;5103058;28;20119;-39
2022/10/16 04:50:36;;;;;;;3.00;1.35;;;12.50;99.90;;;;;;5104590;28;20114;-41
2022/10/16 04:53:01;;;;;;;3.63;1.33;;;12.50;99.90;;;;;;5109586;28;20508;-39
2022/10/16 04:55:27;;;;;;;1.75;1.05;;;12.50;99.90;;;;;;5106512;28;20153;-38
2022/10/16 04:57:53;;;;;;;2.80;1.20;;;12.50;99.90;;;;;;5105083;28;20043;-38
2022/10/16 05:00:19;;;;;;;4.93;1.00;;;12.50;99.90;;;;;;5101196;28;20038;-38
2022/10/16 05:02:44;;;;;;;7.22;1.13;;;12.50;99.90;;;;;;5100880;28;20404;-39
2022/10/16 05:05:11;;;;;;;4.20;1.27;;;12.50;99.90;;;;;;5099511;28;20077;-39
2022/10/16 05:07:36;;;;;;;2.17;1.00;;;12.50;99.90;;;;;;5105920;28;20039;-37
2022/10/16 05:10:02;;;;;;;1.92;1.00;;;12.40;99.90;;;;;;5097777;28;20043;-38
2022/10/16 05:12:28;;;;;;;4.13;1.30;;;12.40;99.90;;;;;;5095955;28;20032;-39
2022/10/16 05:14:58;;;;;;;4.28;1.35;;;12.40;99.90;;;;;;5107482;28;20071;-38
2022/10/16 05:17:24;;;;;;;3.13;1.27;;;12.40;99.90;;;;;;5105378;28;20047;-38
2022/10/16 05:19:50;;;;;;;2.35;1.10;;;12.40;99.90;;;;;;5107326;28;20092;-38
2022/10/16 05:22:16;;;;;;;6.50;0.98;;;12.40;99.90;;;;;;5107259;28;20509;-37
2022/10/16 05:24:41;;;;;;;6.57;0.93;;;12.40;99.90;;;;;;5098878;28;20039;-38
2022/10/16 05:27:07;;;;;;;4.80;1.30;;;12.40;99.90;;;;;;5103569;28;20135;-37
2022/10/16 05:29:33;;;;;;;4.82;1.10;;;12.50;99.90;;;;;;5103658;28;20046;-37
2022/10/16 05:31:58;;;;;;;2.78;1.20;;;12.50;99.90;;;;;;5101153;28;20496;-37
2022/10/16 05:34:24;;;;;;;2.65;1.00;;;12.40;99.90;;;;;;5081399;28;20096;-38
2022/10/16 05:36:50;;;;;;;2.75;1.25;;;12.40;99.90;;;;;;5101320;28;20115;-39
2022/10/16 05:39:16;;;;;;;2.80;1.02;;;12.30;99.90;;;;;;5104537;28;20059;-40
2022/10/16 05:41:42;;;;;;;3.10;1.00;;;12.30;99.90;;;;;;5094998;28;20063;-46
2022/10/16 05:44:08;;;;;;;2.95;1.00;;;12.30;99.90;;;;;;5101554;28;20080;-38
2022/10/16 05:46:34;;;;;;;4.10;0.90;;;12.30;99.90;;;;;;5099891;28;20044;-37
2022/10/16 05:48:59;;;;;;;2.05;1.02;;;12.20;99.90;;;;;;5103905;28;20491;-38
2022/10/16 05:51:25;;;;;;;2.53;1.00;;;12.20;99.90;;;;;;5099632;28;20039;-37
2022/10/16 05:53:52;;;;;;;3.63;1.27;;;12.20;99.90;;;;;;5096460;28;20034;-42
2022/10/16 05:56:18;;;;;;;3.30;1.13;;;12.20;99.90;;;;;;5096136;28;20036;-38
2022/10/16 05:58:44;;;;;;;2.42;1.05;;;12.20;99.90;;;;;;5102487;28;21025;-38
2022/10/16 06:01:16;;;;;;;3.35;1.10;;;12.20;99.90;;;;;;5097649;28;20101;-38
2022/10/16 06:03:42;;;;;;;2.85;1.30;;;12.30;99.90;;;;;;5105064;28;20036;-38
2022/10/16 06:06:16;;;;;;;2.65;0.85;;;12.30;99.90;;;;;;5103352;28;20128;-38
2022/10/16 06:08:43;;;;;;;4.60;1.15;;;12.30;99.90;;;;;;5096979;28;20036;-39
2022/10/16 06:11:14;;;;;;;2.13;0.80;;;12.30;99.90;;;;;;5104226;28;20061;-38
2022/10/16 06:13:45;;;;;;;4.18;1.20;;;12.40;99.90;;;;;;5106414;28;20044;-38
2022/10/16 06:16:12;;;;;;;2.67;1.13;;;12.40;99.90;;;;;;5106704;28;20035;-38
2022/10/16 06:18:38;;;;;;;6.32;0.93;;;12.40;99.90;;;;;;5099060;28;20096;-38
2022/10/16 06:21:19;;;;;;;5.18;1.02;;;12.40;99.90;;;;;;5084969;28;20154;-38
2022/10/16 06:23:48;;;;;;;3.13;1.00;;;12.40;99.90;;;;;;5109232;28;20093;-38
2022/10/16 06:26:16;;;;;;;2.47;1.10;;;12.50;99.90;;;;;;5102529;28;20048;-40
2022/10/16 06:28:42;;;;;;;1.98;0.80;;;12.50;99.90;;;;;;5099913;28;20489;-38
2022/10/16 06:31:09;;;;;;;4.50;0.95;;;12.50;99.90;;;;;;5101312;28;20042;-38
2022/10/16 06:33:36;;;;;;;3.65;1.00;;;12.50;99.90;;;;;;5101298;28;20058;-38
2022/10/16 06:36:07;;;;;;;7.95;1.10;;;12.50;99.90;;;;;;5098847;28;20093;-37
2022/10/16 06:38:32;;;;;;;1.98;0.80;;;12.60;99.90;;;;;;5100874;28;20051;-37
2022/10/16 06:40:58;;;;;;;3.13;1.20;;;12.60;99.90;;;;;;5099267;28;20040;-38
2022/10/16 06:43:25;;;;;;;4.55;0.90;;;12.60;99.90;;;;;;5094942;28;20036;-37
2022/10/16 06:45:54;;;;;;;5.30;0.95;;;12.70;99.90;;;;;;5098701;28;20078;-39
2022/10/16 06:48:20;;;;;;;2.83;0.82;;;12.70;99.90;;;;;;5102731;28;20036;-38
2022/10/16 06:51:06;;;;;;;2.83;0.85;;;12.80;99.90;;;;;;5077842;28;20182;-38
2022/10/16 06:53:34;;;;;;;3.33;0.75;;;12.80;99.90;;;;;;5099024;28;20036;-38
2022/10/16 06:56:14;;;;;;;2.75;0.90;;;12.90;99.90;;;;;;5098832;28;20036;-38
2022/10/16 06:58:41;;;;;;;3.45;1.38;;;12.90;99.90;;;;;;5099293;28;20492;-38
2022/10/16 07:01:07;;;;;;;3.47;0.77;;;12.90;99.90;;;;;;5093635;28;20474;-38
2022/10/16 07:03:33;;;;;;;1.75;0.80;;;13.00;99.90;;;;;;5098011;28;20058;-38
2022/10/16 07:06:03;;;;;;;1.92;0.80;;;13.00;99.90;;;;;;5097883;28;20039;-39
2022/10/16 07:08:33;;;;;;;1.92;0.60;;;13.00;99.90;;;;;;5100266;28;20084;-38
2022/10/16 07:11:01;;;;;;;2.90;0.90;;;13.10;99.90;;;;;;5098572;28;20138;-39
2022/10/16 07:13:26;;;;;;;4.93;0.60;;;13.10;99.90;;;;;;5101384;28;20111;-38
2022/10/16 07:15:52;;;;;;;3.47;0.73;;;13.10;99.90;;;;;;5101034;28;20110;-38
2022/10/16 07:18:18;;;;;;;2.78;0.63;;;13.10;99.90;;;;;;5101987;28;20046;-38
2022/10/16 07:20:43;;;;;;;1.38;0.50;;;13.20;99.90;;;;;;5099611;28;20450;-38
2022/10/16 07:23:09;;;;;;;2.72;0.85;;;13.20;99.90;;;;;;5103070;28;20605;-38
2022/10/16 07:25:35;;;;;;;4.10;0.82;;;13.20;99.90;;;;;;5098091;28;20111;-38
2022/10/16 07:28:00;;;;;;;2.97;0.50;;;13.30;99.90;;;;;;5100356;28;20044;-39
2022/10/16 07:30:26;;;;;;;3.33;0.43;;;13.30;99.90;;;;;;5103861;28;20039;-38
2022/10/16 07:32:52;;;;;;;3.10;0.40;;;13.40;99.90;;;;;;5099672;28;20477;-38
2022/10/16 07:35:17;;;;;;;2.08;0.40;;;13.40;99.90;;;;;;5100233;28;20031;-38
2022/10/16 07:37:46;;;;;;;2.22;0.40;;;13.40;99.90;;;;;;5102459;28;20032;-38
2022/10/16 07:40:12;;;;;;;1.77;0.30;;;13.40;99.90;;;;;;5102936;28;20035;-37
2022/10/16 07:42:38;;;;;;;1.48;0.22;;;13.40;99.90;;;;;;5097526;28;20054;-38
2022/10/16 07:45:04;;;;;;;2.38;0.30;;;13.40;99.90;;;;;;5098769;28;20104;-38
2022/10/16 07:47:29;;;;;;;2.03;0.32;;;13.40;99.90;;;;;;5100417;28;20044;-38
2022/10/16 07:49:55;;;;;;;0.95;0.20;;;13.50;99.90;;;;;;5101585;28;20032;-38
2022/10/16 07:52:21;;;;;;;0.73;0.32;;;13.50;99.90;;;;;;5101778;28;20034;-38
2022/10/16 07:54:46;;;;;;;1.27;0.40;;;13.50;99.90;;;;;;5101690;28;20055;-39
2022/10/16 07:57:18;;;;;;;1.85;0.50;;;13.50;99.90;;;;;;5101235;28;20066;-38
2022/10/16 07:59:44;;;;;;;2.83;0.60;;;13.50;99.90;;;;;;5108167;28;20457;-44
2022/10/16 08:02:10;;;;;;;2.25;0.82;;;13.60;99.90;;;;;;5101902;28;20058;-38
2022/10/16 08:04:35;;;;;;;10.00;0.90;;;13.60;99.90;;;;;;5105008;28;20066;-38
2022/10/16 08:07:01;;;;;;;2.20;0.70;;;13.70;99.90;;;;;;5102509;28;20084;-38
2022/10/16 08:09:26;;;;;;;4.60;1.00;;;13.70;99.90;;;;;;5103743;28;20068;-38
2022/10/16 08:11:52;;;;;;;3.75;1.17;;;13.80;99.90;;;;;;5105436;28;20103;-38
2022/10/16 08:14:18;;;;;;;3.83;0.90;;;13.80;99.90;;;;;;5103006;28;20422;-38
2022/10/16 08:16:43;;;;;;;3.40;0.90;;;13.90;99.90;;;;;;5095493;28;20047;-37
2022/10/16 08:19:09;;;;;;;2.83;0.77;;;13.90;99.90;;;;;;5097519;28;20051;-38
2022/10/16 08:21:35;;;;;;;5.68;0.90;;;13.90;99.90;;;;;;5101010;28;20040;-39
2022/10/16 08:24:00;;;;;;;4.22;1.17;;;13.90;99.90;;;;;;5101337;28;20039;-39
2022/10/16 08:26:26;;;;;;;3.95;1.10;;;13.90;99.90;;;;;;5102265;28;20412;-37
2022/10/16 08:28:52;;;;;;;3.38;1.05;;;13.90;99.90;;;;;;5104823;28;20100;-39
2022/10/16 08:31:18;;;;;;;3.00;1.10;;;13.90;99.90;;;;;;5095888;28;20504;-38
2022/10/16 08:33:47;;;;;;;3.33;1.00;;;13.90;99.90;;;;;;5094184;28;20051;-38
2022/10/16 08:36:13;;;;;;;6.13;1.05;;;13.90;99.90;;;;;;5094738;28;20046;-49
2022/10/16 08:38:39;;;;;;;5.07;1.27;;;13.90;99.90;;;;;;5103311;28;20040;-39
2022/10/16 08:41:13;;;;;;;6.55;1.30;;;13.90;99.90;;;;;;5102378;28;20046;-39
2022/10/16 08:44:18;;;;;;;4.75;1.27;;;13.90;99.90;;;;;;5103678;28;20535;-39
2022/10/16 08:47:24;;;;;;;4.38;0.98;;;14.00;99.90;;;;;;5096834;28;20051;-39
2022/10/16 08:50:00;;;;;;;5.50;0.98;;;14.10;99.90;;;;;;5096847;28;20039;-38
2022/10/16 08:52:30;;;;;;;3.80;1.13;;;14.10;99.90;;;;;;5090597;28;20124;-38
2022/10/16 08:54:56;;;;;;;2.53;0.98;;;14.20;99.90;;;;;;5084716;28;20043;-39
2022/10/16 08:57:24;;;;;;;3.50;1.27;;;14.30;99.90;;;;;;5095809;28;20035;-40
2022/10/16 08:59:51;;;;;;;2.30;0.95;;;14.30;99.90;;;;;;5100009;28;20046;-39
2022/10/16 09:02:35;;;;;;;3.13;0.90;;;14.40;99.90;;;;;;5099939;28;20039;-39
2022/10/16 09:05:22;;;;;;;7.07;1.15;;;14.40;99.90;;;;;;5093886;28;20039;-39
2022/10/16 09:08:20;;;;;;;1.95;0.60;;;14.50;99.90;;;;;;5072968;28;20093;-38
2022/10/16 09:11:07;;;;;;;3.83;0.88;;;14.50;99.90;;;;;;5092563;28;20504;-38
2022/10/16 09:13:48;;;;;;;3.75;0.65;;;14.60;99.90;;;;;;5099624;28;20039;-39
2022/10/16 09:16:58;;;;;;;3.42;0.70;;;14.70;99.90;;;;;;5092251;28;20048;-39
2022/10/16 09:19:37;;;;;;;3.90;1.00;;;14.80;99.90;;;;;;5061487;28;20083;-38
2022/10/16 09:22:14;;;;;;;8.13;0.80;;;14.90;99.90;;;;;;5101230;28;20103;-38
2022/10/16 09:24:40;;;;;;;3.15;0.73;;;14.90;99.90;;;;;;5094465;28;20106;-38
2022/10/16 09:27:11;;;;;;;3.80;0.80;;;15.00;99.90;;;;;;5098227;28;20094;-38
2022/10/16 09:29:36;;;;;;;5.45;0.90;;;15.00;99.90;;;;;;5097088;28;20518;-40
2022/10/16 09:32:19;;;;;;;5.70;0.60;;;15.10;99.90;;;;;;5096853;28;20176;-39
2022/10/16 09:34:52;;;;;;;2.15;0.50;;;15.10;99.90;;;;;;5096749;28;20031;-40
2022/10/16 09:37:21;;;;;;;3.50;0.60;;;15.20;99.90;;;;;;5099755;28;20512;-43
2022/10/16 09:39:53;;;;;;;5.20;0.70;;;15.20;99.90;;;;;;5098345;28;20051;-39
2022/10/16 09:42:31;;;;;;;5.93;0.90;;;15.30;99.90;;;;;;5096217;28;20048;-40
2022/10/16 09:44:57;;;;;;;3.50;1.25;;;15.30;99.90;;;;;;5099244;28;20047;-41
2022/10/16 09:47:25;;;;;;;6.28;0.80;;;15.40;99.90;;;;;;5100509;28;20040;-40
2022/10/16 09:50:01;;;;;;;4.63;0.55;;;15.50;99.90;;;;;;5099620;28;20044;-38
2022/10/16 09:52:29;;;;;;;7.60;0.80;;;15.60;99.90;;;;;;5091509;28;20070;-40
2022/10/16 09:55:01;;;;;;;6.75;0.82;;;15.70;99.90;;;;;;5076325;28;20100;-38
2022/10/16 09:57:28;;;;;;;5.15;0.70;;;15.70;99.90;;;;;;5096193;28;20108;-38
2022/10/16 09:59:58;;;;;;;8.15;1.05;;;15.70;99.90;;;;;;5096597;28;20032;-39
2022/10/16 10:02:40;;;;;;;4.20;0.75;;;15.70;99.90;;;;;;5106840;28;20035;-41
2022/10/16 10:05:17;;;;;;;5.68;1.10;;;15.90;99.90;;;;;;5097319;28;20036;-38
2022/10/16 10:07:45;;;;;;;6.43;0.85;;;15.90;99.90;;;;;;5101833;28;20078;-38
2022/10/16 10:10:23;;;;;;;7.47;1.17;;;16.00;99.90;;;;;;5096074;28;20532;-40
2022/10/16 10:12:48;;;;;;;5.35;1.30;;;16.00;99.90;;;;;;5078499;28;20040;-38
2022/10/16 10:15:21;;;;;;;6.97;1.17;;;16.00;99.90;;;;;;5095601;28;20035;-42
2022/10/16 10:17:57;;;;;;;8.73;1.00;;;16.00;99.90;;;;;;5094238;28;20101;-38
2022/10/16 10:20:27;;;;;;;5.55;0.90;;;15.80;99.90;;;;;;5088333;28;20054;-38
2022/10/16 10:22:55;;;;;;;6.03;1.67;;;15.80;99.90;;;;;;5100567;28;20059;-39
2022/10/16 10:25:44;;;;;;;4.07;1.25;;;15.80;99.90;;;;;;5099056;28;20553;-38
2022/10/16 10:28:13;;;;;;;6.30;0.88;;;15.90;99.90;;;;;;5095276;28;20040;-38
2022/10/16 10:30:45;;;;;;;8.75;0.80;;;16.00;99.90;;;;;;5093024;28;20115;-38
2022/10/16 10:33:30;;;;;;;7.75;1.48;;;16.00;99.90;;;;;;5094169;28;20036;-40
2022/10/16 10:36:13;;;;;;;4.70;1.48;;;16.10;99.90;;;;;;5087706;28;20047;-41
2022/10/16 10:38:59;;;;;;;3.65;0.75;;;16.20;99.90;;;;;;5088579;28;20138;-39
2022/10/16 10:41:52;;;;;;;3.63;0.73;;;16.40;99.90;;;;;;5094795;28;20044;-40
2022/10/16 10:44:56;;;;;;;6.70;1.15;;;16.60;99.90;;;;;;5095166;28;20051;-41
2022/10/16 10:47:39;;;;;;;8.23;0.88;;;16.70;99.90;;;;;;5086069;28;20063;-42
2022/10/16 10:50:24;;;;;;;4.13;0.60;;;16.80;99.90;;;;;;5094644;28;20128;-40
2022/10/16 10:53:11;;;;;;;5.22;0.85;;;16.90;99.90;;;;;;5094641;28;20511;-40
2022/10/16 10:55:42;;;;;;;4.07;0.80;;;16.90;98.80;;;;;;5095275;28;20178;-40
2022/10/16 10:58:49;;;;;;;7.80;1.13;;;16.80;99.90;;;;;;5099105;28;20040;-41
2022/10/16 11:01:18;;;;;;;7.57;0.80;;;16.80;98.20;;;;;;5102585;28;20035;-39
2022/10/16 11:03:57;;;;;;;4.75;1.13;;;16.80;99.20;;;;;;5098759;28;20040;-40
2022/10/16 11:06:32;;;;;;;6.03;0.90;;;16.80;99.90;;;;;;5095167;28;20048;-39
2022/10/16 11:09:37;;;;;;;5.50;0.90;;;16.80;99.30;;;;;;5103102;28;20035;-40
2022/10/16 11:12:17;;;;;;;6.35;0.90;;;16.80;97.70;;;;;;5096975;28;20456;-41
2022/10/16 11:14:52;;;;;;;6.50;1.15;;;16.60;97.90;;;;;;5098413;28;20099;-40
2022/10/16 11:17:26;;;;;;;9.65;1.00;;;16.60;97.80;;;;;;5099732;28;20039;-39
2022/10/16 11:20:13;;;;;;;6.63;1.00;;;16.70;99.30;;;;;;5097481;28;20054;-42
2022/10/16 11:22:47;;;;;;;4.72;0.63;;;16.80;99.50;;;;;;5101463;28;20067;-41
2022/10/16 11:25:29;;;;;;;6.25;0.93;;;17.00;98.60;;;;;;5101505;28;20120;-40
2022/10/16 11:28:07;;;;;;;12.15;0.93;;;17.20;98.80;;;;;;5096980;28;20044;-40
2022/10/16 11:30:50;;;;;;;4.53;1.13;;;17.30;98.20;;;;;;5105598;28;20977;-42
2022/10/16 11:33:40;;;;;;;7.47;0.88;;;17.40;95.70;;;;;;5100970;28;20031;-40
2022/10/16 11:36:19;;;;;;;8.77;1.10;;;17.50;94.90;;;;;;5105327;28;20712;-41
2022/10/16 11:38:47;;;;;;;5.82;0.98;;;17.60;94.00;;;;;;5102992;28;20404;-41
2022/10/16 11:41:26;;;;;;;7.63;0.70;;;17.70;93.70;;;;;;5098776;28;20043;-43
2022/10/16 11:44:33;;;;;;;6.18;0.90;;;18.10;93.80;;;;;;5100996;28;20077;-47
2022/10/16 11:47:24;;;;;;;6.45;1.02;;;18.50;93.20;;;;;;5102707;28;20504;-40
2022/10/16 11:50:04;;;;;;;6.43;0.77;;;18.70;92.00;;;;;;5105734;28;20039;-45
2022/10/16 11:52:37;;;;;;;7.70;1.15;;;18.50;90.20;;;;;;5102760;28;20038;-40
2022/10/16 11:55:05;;;;;;;;;;;18.30;92.50;;;;;;5107123;28;20046;-39
2022/10/16 11:57:35;;;;;;;8.23;1.27;;;18.30;90.70;;;;;;5104133;28;20399;-40
2022/10/16 12:00:33;;;;;;;6.85;0.70;;;18.60;92.60;;;;;;5108226;28;20035;-39
2022/10/16 12:03:14;;;;;;;5.22;0.68;;;19.10;91.00;;;;;;5103881;28;20043;-40
2022/10/16 12:05:59;;;;;;;5.13;0.77;;;19.20;84.30;;;;;;5105730;28;20075;-39
2022/10/16 12:08:26;;;;;;;7.68;1.13;;;18.90;87.10;;;;;;5098826;28;20048;-40
2022/10/16 12:10:52;;;;;;;4.88;1.00;;;18.50;91.10;;;;;;5098808;28;20477;-40
2022/10/16 12:13:39;;;;;;;8.98;1.15;;;18.30;91.70;;;;;;5099824;28;20058;-41
2022/10/16 12:16:13;;;;;;;7.63;0.82;;;18.40;91.40;;;;;;5099473;28;20040;-41
2022/10/16 12:18:41;;;;;;;3.55;0.80;;;18.10;91.60;;;;;;5101688;28;20048;-40
2022/10/16 12:21:07;;;;;;;7.78;0.90;;;17.80;91.50;;;;;;5100025;28;20383;-40
2022/10/16 12:23:37;;;;;;;4.97;0.80;;;17.60;92.70;;;;;;5100153;28;20420;-40
2022/10/16 12:26:04;;;;;;;8.57;0.88;;;17.40;93.00;;;;;;5106430;28;20121;-41
2022/10/16 12:28:32;;;;;;;6.50;0.70;;;17.30;93.60;;;;;;5099543;28;20092;-40
2022/10/16 12:31:08;;;;;;;6.70;1.00;;;17.20;94.10;;;;;;5104113;28;20046;-40
2022/10/16 12:33:37;;;;;;;5.65;1.02;;;17.00;94.00;;;;;;5105942;28;20040;-40
2022/10/16 12:36:08;;;;;;;5.22;0.73;;;17.00;94.40;;;;;;5102847;28;20483;-42
2022/10/16 12:38:38;;;;;;;5.32;0.70;;;17.20;95.20;;;;;;5099927;28;20036;-49
2022/10/16 12:41:09;;;;;;;4.65;0.82;;;17.30;94.20;;;;;;5097025;28;20075;-41
2022/10/16 12:43:37;;;;;;;6.47;0.70;;;17.40;94.60;;;;;;5095591;28;20039;-41
2022/10/16 12:46:09;;;;;;;6.15;1.70;;;17.90;94.80;;;;;;5103243;28;20059;-41
2022/10/16 12:48:36;;;;;;;4.70;0.70;;;19.00;91.90;;;;;;5103884;28;20511;-42
2022/10/16 12:51:21;;;;;;;6.50;1.05;;;19.80;90.40;;;;;;5105884;28;20088;-40
2022/10/16 12:53:58;;;;;;;5.47;0.95;;;20.50;86.20;;;;;;5103136;28;20093;-44
2022/10/16 12:56:42;;;;;;;4.90;0.80;;;21.30;81.20;;;;;;5101841;28;20511;-40
2022/10/16 12:59:25;;;;;;;5.07;1.08;;;21.90;77.80;;;;;;5103133;28;20236;-40
2022/10/16 13:02:06;;;;;;;8.38;0.73;;;22.20;72.60;;;;;;5102528;28;20043;-47
2022/10/16 13:04:52;;;;;;;7.10;1.10;;;21.90;74.60;;;;;;5095216;28;20396;-41
2022/10/16 13:07:48;;;;;;;4.78;0.80;;;22.00;74.20;;;;;;5101680;28;20047;-43
2022/10/16 13:10:31;;;;;;;6.68;0.95;;;21.70;68.30;;;;;;5092481;28;20047;-40